Time;durP1;ratioP1;P1;durP2;ratioP2;P2;SDS_P1;SDS_P2;PMS_P1;PMS_P2;Temp;Humidity;BMP_temperature;BMP_pressure;BME280_temperature;BME280_humidity;BME280_pressure;Samples;Min_cycle;Max_cycle;Signal;HPM_P1;HPM_P2
2021/05/30 00:01:11;;;;;;;1127.43;999.90;;;;;;;18.93;45.75;101346.25;4959747;28;20058;-54
2021/05/30 00:03:37;;;;;;;1128.90;999.90;;;;;;;18.92;45.35;101346.41;4978383;28;20035;-57
2021/05/30 00:06:04;;;;;;;1128.57;999.90;;;;;;;18.89;45.41;101344.91;4963484;28;20117;-56
2021/05/30 00:08:29;;;;;;;1129.72;999.90;;;;;;;18.89;45.38;101353.06;4970004;28;20488;-56
2021/05/30 00:10:56;;;;;;;1127.43;999.90;;;;;;;18.86;45.32;101350.69;4963543;28;20033;-53
2021/05/30 00:13:22;;;;;;;1128.32;999.90;;;;;;;18.87;45.40;101346.94;4962487;28;20393;-55
2021/05/30 00:15:48;;;;;;;1131.75;999.90;;;;;;;18.85;45.33;101346.28;4970439;28;20061;-57
2021/05/30 00:18:14;;;;;;;1125.90;999.90;;;;;;;18.84;45.38;101341.84;4963297;28;20031;-53
2021/05/30 00:20:39;;;;;;;1128.57;999.90;;;;;;;18.84;45.44;101344.56;4961331;28;20035;-55
2021/05/30 00:23:05;;;;;;;1126.85;999.90;;;;;;;18.82;45.25;101349.31;4971107;28;20116;-53
2021/05/30 00:25:32;;;;;;;1128.05;999.90;;;;;;;18.81;45.44;101350.34;4971255;28;20400;-55
2021/05/30 00:27:58;;;;;;;1131.07;999.90;;;;;;;18.81;45.62;101350.34;4964691;28;20031;-54
2021/05/30 00:30:24;;;;;;;1130.18;999.90;;;;;;;18.80;45.60;101348.63;4970432;28;20458;-55
2021/05/30 00:32:50;;;;;;;1130.15;999.90;;;;;;;18.79;45.32;101357.81;4970204;28;20026;-56
2021/05/30 00:35:16;;;;;;;1130.60;999.90;;;;;;;18.79;45.37;101357.81;4963102;28;20034;-56
2021/05/30 00:37:42;;;;;;;1127.55;999.90;;;;;;;18.78;45.22;101356.13;4969537;28;20503;-55
2021/05/30 00:40:08;;;;;;;1129.38;999.90;;;;;;;18.78;45.26;101360.72;4970480;28;20042;-58
2021/05/30 00:42:34;;;;;;;1129.28;999.90;;;;;;;18.75;45.56;101353.75;4969917;28;20030;-56
2021/05/30 00:45:00;;;;;;;1127.45;999.90;;;;;;;18.74;45.55;101352.06;4966328;28;20040;-57
2021/05/30 00:47:25;;;;;;;1129.63;999.90;;;;;;;18.75;45.64;101351.03;4970177;28;20050;-57
2021/05/30 00:49:51;;;;;;;1127.32;999.90;;;;;;;18.73;45.44;101344.91;4971534;28;20407;-61
2021/05/30 00:52:18;;;;;;;1127.20;999.90;;;;;;;18.72;45.64;101348.66;4970216;28;20065;-56
2021/05/30 00:54:44;;;;;;;1127.10;999.90;;;;;;;18.71;45.56;101346.97;4971541;28;20099;-59
2021/05/30 00:57:10;;;;;;;1129.50;999.90;;;;;;;18.70;45.54;101356.13;4969540;28;20055;-61
2021/05/30 00:59:36;;;;;;;1129.57;999.90;;;;;;;18.72;45.62;101364.13;4967413;28;20058;-55
2021/05/30 01:02:03;;;;;;;1128.97;999.90;;;;;;;18.69;45.47;101366.16;4971445;28;20026;-59
2021/05/30 01:04:29;;;;;;;1129.22;999.90;;;;;;;18.68;45.61;101356.28;4969215;28;20038;-59
2021/05/30 01:06:57;;;;;;;1128.25;999.90;;;;;;;18.68;45.26;101360.88;4972591;28;20515;-63
2021/05/30 01:09:25;;;;;;;1128.68;999.90;;;;;;;18.67;45.43;101361.91;4968448;28;20050;-58
2021/05/30 01:11:52;;;;;;;1127.60;999.90;;;;;;;18.67;45.65;101361.91;4973156;28;20039;-57
2021/05/30 01:14:18;;;;;;;1129.00;999.90;;;;;;;18.65;45.52;101350.34;4972835;28;20026;-59
2021/05/30 01:16:44;;;;;;;1126.38;999.90;;;;;;;18.64;45.60;101346.78;4973251;28;20034;-59
2021/05/30 01:19:11;;;;;;;1125.47;999.90;;;;;;;18.64;45.51;101359.53;4971287;28;20026;-56
2021/05/30 01:21:37;;;;;;;1129.35;999.90;;;;;;;18.65;45.65;101359.34;4973486;28;20046;-58
2021/05/30 01:24:04;;;;;;;1125.95;999.90;;;;;;;18.63;45.51;101353.22;4973963;28;20035;-54
2021/05/30 01:26:30;;;;;;;1129.47;999.90;;;;;;;18.62;45.70;101356.09;4973181;28;20039;-63
2021/05/30 01:28:56;;;;;;;1129.15;999.90;;;;;;;18.61;45.23;101346.25;4971591;28;20026;-55
2021/05/30 01:31:23;;;;;;;1126.45;999.90;;;;;;;18.62;45.60;101347.94;4973878;28;20031;-54
2021/05/30 01:33:49;;;;;;;1126.65;999.90;;;;;;;18.61;45.67;101347.09;4973567;28;20038;-57
2021/05/30 01:36:15;;;;;;;1128.03;999.90;;;;;;;18.61;45.38;101348.97;4972603;28;20039;-57
2021/05/30 01:38:41;;;;;;;1127.60;999.90;;;;;;;18.59;45.23;101348.28;4971835;28;20041;-58
2021/05/30 01:41:07;;;;;;;1125.82;999.90;;;;;;;18.59;45.60;101349.16;4969869;28;20112;-57
2021/05/30 01:43:33;;;;;;;1127.57;999.90;;;;;;;18.59;45.24;101351.00;4966712;28;20041;-59
2021/05/30 01:46:00;;;;;;;1128.63;999.90;;;;;;;18.58;45.11;101347.41;4968883;28;20034;-56
2021/05/30 01:48:27;;;;;;;1126.35;999.90;;;;;;;18.59;45.36;101348.28;4971843;28;20027;-56
2021/05/30 01:50:53;;;;;;;1128.60;999.90;;;;;;;18.57;45.03;101353.03;4961464;28;20050;-61
2021/05/30 01:53:25;;;;;;;1126.00;999.90;;;;;;;18.57;45.40;101344.88;4961834;28;20046;-59
2021/05/30 01:58:19;;;;;;;1126.82;999.90;;;;;;;18.55;45.28;101341.47;4970288;28;20495;-59
2021/05/30 02:00:46;;;;;;;1126.60;999.90;;;;;;;18.55;45.48;101349.63;4967950;28;20518;-62
2021/05/30 02:03:13;;;;;;;1124.70;999.90;;;;;;;18.55;45.21;101350.47;4972995;28;20046;-54
2021/05/30 02:05:41;;;;;;;1126.10;999.90;;;;;;;18.55;45.13;101352.34;4964960;28;20043;-60
2021/05/30 02:08:09;;;;;;;1126.95;999.90;;;;;;;18.55;45.26;101353.19;4963788;28;20058;-60
2021/05/30 02:10:36;;;;;;;1122.88;999.90;;;;;;;18.54;45.34;101362.38;4971673;28;20043;-58
2021/05/30 02:13:04;;;;;;;1124.28;999.90;;;;;;;18.54;45.17;101358.81;4970337;28;20038;-58
2021/05/30 02:15:30;;;;;;;1124.55;999.90;;;;;;;18.54;45.20;101359.66;4972745;28;20049;-54
2021/05/30 02:17:56;;;;;;;1126.18;999.90;;;;;;;18.54;45.27;101353.38;4963787;28;20066;-52
2021/05/30 02:20:48;;;;;;;1128.15;999.90;;;;;;;18.54;45.22;101358.81;4966149;28;20526;-57
2021/05/30 02:23:15;;;;;;;1126.88;999.90;;;;;;;18.52;45.14;101353.53;4963162;28;20045;-54
2021/05/30 02:25:42;;;;;;;1125.38;999.90;;;;;;;18.52;45.28;101353.53;4964878;28;20038;-58
2021/05/30 02:28:08;;;;;;;1126.18;999.90;;;;;;;18.53;45.06;101362.53;4957452;28;20027;-62
2021/05/30 02:30:34;;;;;;;1129.10;999.90;;;;;;;18.51;45.25;101362.72;4971982;28;20049;-60
2021/05/30 02:33:03;;;;;;;1125.22;999.90;;;;;;;18.51;45.16;101362.72;4971833;28;20031;-57
2021/05/30 02:35:29;;;;;;;1124.88;999.90;;;;;;;18.50;45.15;101365.63;4971875;28;20053;-56
2021/05/30 02:37:55;;;;;;;1125.40;999.90;;;;;;;18.49;45.27;101367.47;4957824;28;20043;-57
2021/05/30 02:40:21;;;;;;;1125.30;999.90;;;;;;;18.50;45.12;101361.03;4969816;28;20033;-54
2021/05/30 02:42:47;;;;;;;1125.50;999.90;;;;;;;18.49;45.02;101358.47;4966846;28;20058;-55
2021/05/30 02:45:13;;;;;;;1123.97;999.90;;;;;;;18.49;45.32;101363.91;4972409;28;20035;-55
2021/05/30 02:47:39;;;;;;;1125.82;999.90;;;;;;;18.48;45.34;101362.22;4964469;28;20035;-57
2021/05/30 02:50:06;;;;;;;1126.53;999.90;;;;;;;18.48;45.13;101364.94;4969416;28;20117;-55
2021/05/30 02:52:32;;;;;;;1124.95;999.90;;;;;;;18.48;45.24;101373.94;4972303;28;20387;-54
2021/05/30 02:54:58;;;;;;;1127.53;999.90;;;;;;;18.46;45.34;101356.06;4970799;28;20034;-56
2021/05/30 02:57:24;;;;;;;1124.63;999.90;;;;;;;18.47;45.22;101364.09;4971901;28;20062;-53
2021/05/30 02:59:50;;;;;;;1122.22;999.90;;;;;;;18.47;45.32;101360.50;4971460;28;20034;-53
2021/05/30 03:02:16;;;;;;;1125.55;999.90;;;;;;;18.47;45.18;101360.50;4963853;28;20031;-61
2021/05/30 03:04:42;;;;;;;1125.15;999.90;;;;;;;18.46;45.43;101358.78;4971747;28;20069;-54
2021/05/30 03:07:08;;;;;;;1126.13;999.90;;;;;;;18.46;45.21;101356.91;4971358;28;20034;-57
2021/05/30 03:09:34;;;;;;;1123.00;999.90;;;;;;;18.45;45.25;101355.22;4971626;28;20528;-55
2021/05/30 03:12:00;;;;;;;1123.43;999.90;;;;;;;18.45;45.11;101349.78;4963702;28;20043;-54
2021/05/30 03:14:26;;;;;;;1124.57;999.90;;;;;;;18.44;45.09;101349.97;4972540;28;20053;-52
2021/05/30 03:16:52;;;;;;;1124.18;999.90;;;;;;;18.44;45.25;101339.94;4971304;28;20034;-58
2021/05/30 03:19:21;;;;;;;1126.43;999.90;;;;;;;18.43;45.21;101346.41;4963496;28;20035;-55
2021/05/30 03:21:46;;;;;;;1126.05;999.90;;;;;;;18.42;45.40;101353.69;4970595;28;20148;-53
2021/05/30 03:24:12;;;;;;;1123.80;999.90;;;;;;;18.42;45.18;101341.97;4970286;28;20026;-58
2021/05/30 03:26:38;;;;;;;1125.78;999.90;;;;;;;18.43;45.09;101343.69;4965060;28;20045;-53
2021/05/30 03:29:04;;;;;;;1126.45;999.90;;;;;;;18.42;45.04;101342.81;4971658;28;20379;-57
2021/05/30 03:31:30;;;;;;;1124.63;999.90;;;;;;;18.42;45.10;101348.25;4970096;28;20050;-57
2021/05/30 03:33:56;;;;;;;1124.90;999.90;;;;;;;18.42;45.22;101344.69;4969858;28;20069;-58
2021/05/30 03:36:26;;;;;;;1123.13;999.90;;;;;;;18.42;45.34;101350.13;4963507;28;20064;-54
2021/05/30 03:39:01;;;;;;;1122.37;999.90;;;;;;;18.42;45.08;101352.84;4966653;28;20046;-58
2021/05/30 03:41:42;;;;;;;1126.35;999.90;;;;;;;18.41;44.97;101345.72;4966261;28;20054;-56
2021/05/30 03:44:08;;;;;;;;;;;;;;;18.40;45.28;101344.88;4965045;28;20029;-59
2021/05/30 03:46:35;;;;;;;1123.25;999.90;;;;;;;18.41;45.11;101346.56;4965703;28;19922;-64
2021/05/30 03:49:01;;;;;;;1123.82;999.90;;;;;;;18.40;45.27;101344.88;4968002;28;20538;-63
2021/05/30 03:51:27;;;;;;;1124.68;999.90;;;;;;;18.42;45.26;101347.41;4969601;28;20046;-62
2021/05/30 03:53:54;;;;;;;1129.68;999.90;;;;;;;18.42;45.09;101352.84;4968875;28;20405;-62
2021/05/30 03:56:20;;;;;;;1125.78;999.90;;;;;;;18.42;44.91;101348.25;4969257;28;20053;-59
2021/05/30 03:58:45;;;;;;;1128.45;999.90;;;;;;;18.41;45.08;101346.56;4969365;28;20047;-63
2021/05/30 04:01:11;;;;;;;1124.38;999.90;;;;;;;18.40;45.03;101352.19;4969561;28;20377;-63
2021/05/30 04:03:37;;;;;;;1126.85;999.90;;;;;;;18.39;44.83;101350.47;4969607;28;20037;-63
2021/05/30 04:06:03;;;;;;;1128.45;999.90;;;;;;;18.38;45.06;101344.19;4965304;28;20027;-65
2021/05/30 04:08:29;;;;;;;1125.53;999.90;;;;;;;18.40;45.06;101353.03;4966721;28;20053;-64
2021/05/30 04:10:55;;;;;;;1125.55;999.90;;;;;;;18.40;44.87;101353.03;4967541;28;20038;-63
2021/05/30 04:13:21;;;;;;;1126.68;999.90;;;;;;;18.40;45.09;101365.75;4969529;28;20039;-63
2021/05/30 04:15:47;;;;;;;1123.70;999.90;;;;;;;18.38;45.00;101357.78;4969672;28;20042;-61
2021/05/30 04:18:13;;;;;;;1126.30;999.90;;;;;;;18.38;45.11;101363.22;4967278;28;20046;-62
2021/05/30 04:20:39;;;;;;;1125.07;999.90;;;;;;;18.39;44.94;101359.47;4969575;28;20051;-65
2021/05/30 04:23:05;;;;;;;1127.03;999.90;;;;;;;18.38;45.22;101362.38;4969503;28;20384;-60
2021/05/30 04:25:31;;;;;;;1127.85;999.90;;;;;;;18.37;44.96;101361.53;4969125;28;20047;-62
2021/05/30 04:27:57;;;;;;;1125.78;999.90;;;;;;;18.37;44.95;101366.97;4969562;28;20371;-61
2021/05/30 04:30:23;;;;;;;1127.38;999.90;;;;;;;18.38;44.88;101365.94;4968418;28;20029;-60
2021/05/30 04:32:49;;;;;;;1125.07;999.90;;;;;;;18.38;45.01;101362.38;4970363;28;20403;-61
2021/05/30 04:35:15;;;;;;;1126.22;999.90;;;;;;;18.37;44.89;101364.25;4974330;28;20036;-63
2021/05/30 04:37:41;;;;;;;1126.05;999.90;;;;;;;18.36;44.99;101361.69;4972209;28;20041;-63
2021/05/30 04:40:08;;;;;;;1128.32;999.90;;;;;;;18.35;45.10;101369.00;4969528;28;20062;-62
2021/05/30 04:42:33;;;;;;;1125.25;999.90;;;;;;;18.36;44.84;101370.69;4968836;28;20034;-64
2021/05/30 04:44:59;;;;;;;1126.18;999.90;;;;;;;18.37;44.94;101377.84;4972063;28;20411;-59
2021/05/30 04:47:25;;;;;;;1125.88;999.90;;;;;;;18.37;44.91;101371.53;4972136;28;20043;-60
2021/05/30 04:49:51;;;;;;;1126.32;999.90;;;;;;;18.37;45.05;101375.09;4972755;28;20026;-62
2021/05/30 04:52:17;;;;;;;1128.78;999.90;;;;;;;18.37;44.95;101374.25;4970927;28;20113;-62
2021/05/30 04:54:43;;;;;;;1124.38;999.90;;;;;;;18.36;44.94;101376.13;4973000;28;20031;-63
2021/05/30 04:57:09;;;;;;;1127.47;999.90;;;;;;;18.36;44.87;101373.41;4971562;28;20483;-63
2021/05/30 04:59:35;;;;;;;1125.68;999.90;;;;;;;18.38;45.11;101378.69;4971008;28;20168;-63
2021/05/30 05:02:01;;;;;;;1125.50;999.90;;;;;;;18.36;44.90;101380.72;4971495;28;20414;-64
2021/05/30 05:04:27;;;;;;;1122.00;999.90;;;;;;;18.36;44.94;101376.13;4967992;28;20047;-59
2021/05/30 05:06:52;;;;;;;1127.57;999.90;;;;;;;18.36;44.96;101376.13;4970722;28;20125;-61
2021/05/30 05:09:18;;;;;;;1123.00;999.90;;;;;;;18.36;45.04;101383.44;4964172;28;20077;-61
2021/05/30 05:11:44;;;;;;;1127.47;999.90;;;;;;;18.37;45.08;101385.13;4969753;28;20041;-62
2021/05/30 05:14:10;;;;;;;1126.05;999.90;;;;;;;18.37;44.81;101377.84;4981701;28;20065;-60
2021/05/30 05:16:37;;;;;;;1122.72;999.90;;;;;;;18.37;45.13;101390.56;4968393;28;20054;-62
2021/05/30 05:19:03;;;;;;;1125.03;999.90;;;;;;;18.37;44.96;101383.25;4970427;28;20038;-63
2021/05/30 05:21:29;;;;;;;1123.35;999.90;;;;;;;18.39;45.23;101388.53;4972680;28;20039;-63
2021/05/30 05:23:54;;;;;;;1125.13;999.90;;;;;;;18.39;45.26;101383.09;4972389;28;20062;-59
2021/05/30 05:26:21;;;;;;;1121.43;999.90;;;;;;;18.41;45.06;101389.22;4971658;28;20502;-60
2021/05/30 05:28:48;;;;;;;1124.93;999.90;;;;;;;18.41;45.02;101386.50;4972269;28;20558;-61
2021/05/30 05:31:14;;;;;;;1125.05;999.90;;;;;;;18.42;44.95;101390.91;4971392;28;20042;-64
2021/05/30 05:33:40;;;;;;;1126.25;999.90;;;;;;;18.42;45.16;101397.19;4971819;28;20038;-62
2021/05/30 05:36:06;;;;;;;1123.80;999.90;;;;;;;18.41;44.95;101395.50;4972435;28;20047;-64
2021/05/30 05:38:32;;;;;;;1125.70;999.90;;;;;;;18.41;45.15;101400.94;4969926;28;20040;-60
2021/05/30 05:40:58;;;;;;;1123.03;999.90;;;;;;;18.42;45.26;101407.22;4971655;28;20049;-63
2021/05/30 05:43:24;;;;;;;1129.13;999.90;;;;;;;18.43;45.37;101406.19;4972210;28;20380;-62
2021/05/30 05:45:50;;;;;;;1122.57;999.90;;;;;;;18.44;45.26;101410.59;4966895;28;20050;-61
2021/05/30 05:48:16;;;;;;;1122.25;999.90;;;;;;;18.45;45.20;101406.03;4988529;28;20034;-62
2021/05/30 05:50:45;;;;;;;1124.18;999.90;;;;;;;18.46;45.29;101407.72;4976899;28;20074;-64
2021/05/30 05:53:12;;;;;;;1124.40;999.90;;;;;;;18.45;45.50;101408.75;4965891;28;20042;-64
2021/05/30 05:55:38;;;;;;;1123.10;999.90;;;;;;;18.44;45.49;101407.88;4972030;28;20034;-61
2021/05/30 05:58:04;;;;;;;1126.25;999.90;;;;;;;18.45;45.41;101406.88;4972554;28;20507;-61
2021/05/30 06:00:31;;;;;;;1126.03;999.90;;;;;;;18.47;45.48;101401.25;4970109;28;20039;-63
2021/05/30 06:02:57;;;;;;;1123.90;999.90;;;;;;;18.46;45.37;101405.00;4966155;28;20027;-63
2021/05/30 06:05:24;;;;;;;1124.57;999.90;;;;;;;18.46;45.45;101405.00;4960597;28;20031;-63
2021/05/30 06:07:52;;;;;;;1125.60;999.90;;;;;;;18.45;45.38;101408.75;4969998;28;20043;-61
2021/05/30 06:10:24;;;;;;;1125.53;999.90;;;;;;;18.45;45.43;101409.59;4972429;28;20033;-63
2021/05/30 06:12:55;;;;;;;1122.40;999.90;;;;;;;18.45;45.59;101406.88;4971260;28;20383;-62
2021/05/30 06:15:23;;;;;;;1123.38;999.90;;;;;;;18.46;45.51;101407.72;4965055;28;20047;-62
2021/05/30 06:18:06;;;;;;;1125.55;999.90;;;;;;;18.45;45.59;101409.59;4967642;28;20031;-64
2021/05/30 06:20:32;;;;;;;1125.63;999.90;;;;;;;18.45;45.49;101408.75;4963089;28;20059;-62
2021/05/30 06:22:58;;;;;;;1125.97;999.90;;;;;;;18.46;45.57;101413.16;4971538;28;20042;-62
2021/05/30 06:25:27;;;;;;;1124.03;999.90;;;;;;;18.46;45.66;101408.56;4971288;28;20059;-60
2021/05/30 06:27:56;;;;;;;1125.35;999.90;;;;;;;18.46;45.28;101418.59;4964184;28;20054;-62
2021/05/30 06:30:35;;;;;;;1124.43;999.90;;;;;;;18.46;45.61;101421.31;4971343;28;20041;-63
2021/05/30 06:33:01;;;;;;;1123.95;999.90;;;;;;;18.46;45.60;101413.16;4968991;28;20073;-62
2021/05/30 06:35:29;;;;;;;1121.68;999.90;;;;;;;18.45;45.70;101412.31;4972092;28;20039;-62
2021/05/30 06:37:55;;;;;;;1123.10;999.90;;;;;;;18.47;45.69;101420.28;4969792;28;20038;-63
2021/05/30 06:40:21;;;;;;;1125.53;999.90;;;;;;;18.53;45.44;101416.91;4970579;28;20027;-59
2021/05/30 06:42:49;;;;;;;1124.32;999.90;;;;;;;18.61;45.28;101411.50;4970920;28;20035;-59
2021/05/30 06:45:15;;;;;;;1123.28;999.90;;;;;;;18.66;45.05;101414.59;4970719;28;20058;-62
2021/05/30 06:47:41;;;;;;;1126.20;999.90;;;;;;;18.70;44.95;101402.34;4970558;28;20038;-61
2021/05/30 06:50:08;;;;;;;1126.45;999.90;;;;;;;18.71;44.94;101401.34;4971612;28;20030;-62
2021/05/30 06:52:34;;;;;;;1124.53;999.90;;;;;;;18.73;44.80;101404.75;4970183;28;20399;-61
2021/05/30 06:55:00;;;;;;;1124.88;999.90;;;;;;;18.74;44.90;101401.00;4971639;28;20057;-60
2021/05/30 06:57:25;;;;;;;1124.80;999.90;;;;;;;18.74;44.77;101401.00;4970583;28;20058;-59
2021/05/30 06:59:51;;;;;;;1126.55;999.90;;;;;;;18.74;44.84;101406.44;4966551;28;20503;-57
2021/05/30 07:02:19;;;;;;;1127.13;999.90;;;;;;;18.75;44.67;101410.00;4970562;28;20032;-59
2021/05/30 07:04:44;;;;;;;1125.80;999.90;;;;;;;18.74;44.97;101409.16;4954945;28;20042;-60
2021/05/30 07:07:10;;;;;;;1126.22;999.90;;;;;;;18.75;44.70;101407.28;4969899;28;20483;-58
2021/05/30 07:09:36;;;;;;;1124.85;999.90;;;;;;;18.75;44.69;101410.00;4970941;28;20042;-61
2021/05/30 07:12:04;;;;;;;1126.05;999.90;;;;;;;18.72;45.04;101397.59;4970170;28;20406;-61
2021/05/30 07:14:31;;;;;;;1123.47;999.90;;;;;;;18.74;44.93;101400.16;4961147;28;20419;-60
2021/05/30 07:16:57;;;;;;;1126.20;999.90;;;;;;;18.72;44.89;101405.78;4968931;28;20039;-61
2021/05/30 07:19:23;;;;;;;1126.60;999.90;;;;;;;18.73;44.91;101410.19;4962494;28;20046;-58
2021/05/30 07:21:50;;;;;;;1125.95;999.90;;;;;;;18.74;45.04;101417.31;4970713;28;20023;-60
2021/05/30 07:24:17;;;;;;;1124.60;999.90;;;;;;;18.74;44.98;101409.16;4970484;28;20322;-61
2021/05/30 07:26:43;;;;;;;1125.13;999.90;;;;;;;18.73;44.89;101406.63;4968755;28;20033;-58
2021/05/30 07:29:09;;;;;;;1124.05;999.90;;;;;;;18.73;44.89;101399.31;4970548;28;20046;-59
2021/05/30 07:31:35;;;;;;;1126.30;999.90;;;;;;;18.73;44.87;101399.31;4969781;28;20090;-60
2021/05/30 07:34:02;;;;;;;1121.53;999.90;;;;;;;18.73;44.84;101393.88;4970387;28;20030;-61
2021/05/30 07:36:28;;;;;;;1124.28;999.90;;;;;;;18.74;44.78;101395.56;4970842;28;20045;-63
2021/05/30 07:38:55;;;;;;;1125.60;999.90;;;;;;;18.73;44.75;101399.31;4968482;28;20039;-61
2021/05/30 07:41:22;;;;;;;1125.55;999.90;;;;;;;18.74;44.79;101397.44;4971307;28;20038;-61
2021/05/30 07:43:48;;;;;;;1122.18;999.90;;;;;;;18.72;44.92;101403.03;4961329;28;20037;-63
2021/05/30 07:46:14;;;;;;;1123.82;999.90;;;;;;;18.69;44.07;101411.53;4967457;28;20102;-62
2021/05/30 07:48:39;;;;;;;1124.30;999.90;;;;;;;18.69;44.09;101415.09;4971268;28;20042;-61
2021/05/30 07:51:06;;;;;;;1125.85;999.90;;;;;;;18.72;43.50;101407.63;4968705;28;20039;-58
2021/05/30 07:53:32;;;;;;;1125.75;999.90;;;;;;;18.72;43.72;101408.50;4963598;28;20050;-61
2021/05/30 07:55:58;;;;;;;1124.38;999.90;;;;;;;18.72;43.14;101403.03;4970303;28;20047;-57
2021/05/30 07:58:25;;;;;;;1126.60;999.90;;;;;;;18.74;43.04;101406.44;4962863;28;20240;-59
2021/05/30 08:00:51;;;;;;;1124.72;999.90;;;;;;;18.72;41.92;101405.78;4970071;28;20515;-57
2021/05/30 08:03:18;;;;;;;1126.90;999.90;;;;;;;18.69;42.34;101409.66;4966194;28;20031;-61
2021/05/30 08:05:43;;;;;;;1125.28;999.90;;;;;;;18.70;40.85;101414.06;4969667;28;20038;-56
2021/05/30 08:08:09;;;;;;;1125.40;999.90;;;;;;;18.72;40.78;101404.91;4971646;28;20042;-63
2021/05/30 08:10:36;;;;;;;1124.53;999.90;;;;;;;18.72;41.03;101418.53;4966623;28;20031;-59
2021/05/30 08:13:02;;;;;;;1123.30;999.90;;;;;;;18.70;41.35;101399.63;4988591;28;20047;-61
2021/05/30 08:15:28;;;;;;;1126.68;999.90;;;;;;;18.70;40.79;101411.34;4973507;28;20038;-59
2021/05/30 08:17:54;;;;;;;1126.10;999.90;;;;;;;18.76;41.31;101412.56;4971080;28;20037;-58
2021/05/30 08:20:21;;;;;;;1128.18;999.90;;;;;;;18.79;41.04;101405.91;4971314;28;20050;-59
2021/05/30 08:22:47;;;;;;;1124.30;999.90;;;;;;;18.78;40.73;101399.63;4972750;28;20037;-57
2021/05/30 08:25:15;;;;;;;1125.80;999.90;;;;;;;18.76;39.87;101396.25;4974860;28;20053;-59
2021/05/30 08:27:41;;;;;;;1123.85;999.90;;;;;;;18.74;40.36;101397.44;4966945;28;20394;-59
2021/05/30 08:30:08;;;;;;;1124.15;999.90;;;;;;;18.74;40.56;101414.59;4974272;28;20042;-58
2021/05/30 08:32:34;;;;;;;1125.25;999.90;;;;;;;18.72;40.08;101403.03;4973542;28;20037;-56
2021/05/30 08:35:00;;;;;;;1125.88;999.90;;;;;;;18.72;39.58;101404.91;4971570;28;20026;-56
2021/05/30 08:37:26;;;;;;;1122.60;999.90;;;;;;;18.72;39.67;101403.03;4974493;28;20483;-58
2021/05/30 08:39:52;;;;;;;1124.22;999.90;;;;;;;18.71;40.08;101404.06;4972189;28;20043;-59
2021/05/30 08:42:20;;;;;;;1127.53;999.90;;;;;;;18.71;40.03;101404.06;4973166;28;20042;-57
2021/05/30 08:44:47;;;;;;;1124.53;999.90;;;;;;;18.70;39.11;101407.78;4973576;28;20034;-57
2021/05/30 08:47:13;;;;;;;1125.55;999.90;;;;;;;18.72;39.57;101404.91;4973523;28;20034;-59
2021/05/30 08:49:39;;;;;;;1126.32;999.90;;;;;;;18.71;40.12;101409.50;4973411;28;20034;-57
2021/05/30 08:52:07;;;;;;;1122.70;999.90;;;;;;;18.70;39.14;101405.06;4967958;28;20038;-58
2021/05/30 08:54:33;;;;;;;1123.28;999.90;;;;;;;18.69;39.60;101397.94;4971563;28;20403;-55
2021/05/30 08:56:59;;;;;;;1125.85;999.90;;;;;;;18.68;38.40;101409.81;4973782;28;20031;-59
2021/05/30 08:59:28;;;;;;;1124.72;999.90;;;;;;;18.68;39.42;101407.09;4970607;28;20031;-59
2021/05/30 09:01:56;;;;;;;1125.30;999.90;;;;;;;18.69;39.23;101415.09;4972410;28;20042;-58
2021/05/30 09:04:42;;;;;;;1127.75;999.90;;;;;;;18.69;39.59;101404.22;4971355;28;20038;-57
2021/05/30 09:07:09;;;;;;;1122.93;999.90;;;;;;;18.70;40.02;101405.91;4969322;28;20035;-59
2021/05/30 09:09:40;;;;;;;1124.30;999.90;;;;;;;18.70;40.10;101405.06;4972783;28;20035;-59
2021/05/30 09:12:18;;;;;;;1123.18;999.90;;;;;;;18.71;39.80;101417.66;4968071;28;20502;-58
2021/05/30 09:14:45;;;;;;;1121.05;999.90;;;;;;;18.73;39.95;101399.31;4970771;28;20049;-59
2021/05/30 09:17:12;;;;;;;1124.65;999.90;;;;;;;18.71;40.54;101398.63;4965643;28;20034;-57
2021/05/30 09:19:43;;;;;;;1126.68;999.90;;;;;;;18.72;40.05;101403.03;4972183;28;20034;-59
2021/05/30 09:22:34;;;;;;;1122.72;999.90;;;;;;;18.73;39.67;101402.03;4972794;28;20507;-59
2021/05/30 09:25:01;;;;;;;1124.88;999.90;;;;;;;18.74;40.07;101405.59;4972611;28;20122;-59
2021/05/30 09:27:27;;;;;;;1124.63;999.90;;;;;;;18.73;40.39;101402.03;4973477;28;20038;-57
2021/05/30 09:30:12;;;;;;;1123.15;999.90;;;;;;;18.74;39.99;101403.72;4964670;28;20031;-56
2021/05/30 09:33:03;;;;;;;1122.95;999.90;;;;;;;18.80;40.23;101403.03;4967236;28;20050;-59
2021/05/30 09:35:41;;;;;;;1126.55;999.90;;;;;;;18.80;39.21;101408.47;4972567;28;20051;-59
2021/05/30 09:38:11;;;;;;;1125.25;999.90;;;;;;;18.82;39.53;101409.16;4969640;28;20047;-58
2021/05/30 09:40:49;;;;;;;1121.20;999.90;;;;;;;18.81;39.63;101410.16;4961746;28;20408;-60
2021/05/30 09:43:17;;;;;;;1124.25;999.90;;;;;;;18.81;39.58;101396.56;4964808;28;20038;-59
2021/05/30 09:46:09;;;;;;;1124.05;999.90;;;;;;;18.79;39.47;101398.63;4972367;28;20048;-58
2021/05/30 09:48:48;;;;;;;1125.18;999.90;;;;;;;18.79;39.65;101401.34;4998995;22;20057;-58
2021/05/30 09:51:28;;;;;;;1125.15;999.90;;;;;;;18.79;39.45;101404.06;5001563;28;20036;-58
2021/05/30 09:53:57;;;;;;;1124.13;999.90;;;;;;;18.78;39.02;101399.63;4990714;28;20034;-60
2021/05/30 09:56:30;;;;;;;1126.15;999.90;;;;;;;18.76;39.05;101404.41;5000267;28;20499;-56
2021/05/30 09:58:57;;;;;;;1124.78;999.90;;;;;;;18.74;38.57;101400.16;5007053;28;20437;-57
2021/05/30 10:01:25;;;;;;;1124.57;999.90;;;;;;;18.69;37.77;101397.94;4992357;28;20061;-56
2021/05/30 10:03:53;;;;;;;1123.13;999.90;;;;;;;18.69;37.65;101392.47;5004333;28;20072;-60
2021/05/30 10:06:19;;;;;;;1124.25;999.90;;;;;;;18.72;38.65;101396.75;4996425;28;20115;-57
2021/05/30 10:08:46;;;;;;;1123.57;999.90;;;;;;;18.67;37.90;101395.38;5007015;28;20032;-56
2021/05/30 10:11:14;;;;;;;1125.40;999.90;;;;;;;18.66;37.84;101385.53;5003546;28;20033;-58
2021/05/30 10:13:40;;;;;;;1126.22;999.90;;;;;;;18.67;37.98;101389.94;5000444;28;20038;-59
2021/05/30 10:16:07;;;;;;;1123.43;999.90;;;;;;;18.67;37.98;101397.25;4998981;28;20056;-56
2021/05/30 10:18:43;;;;;;;1124.82;999.90;;;;;;;18.68;37.72;101396.22;4994494;28;20029;-57
2021/05/30 10:21:14;;;;;;;1125.38;999.90;;;;;;;18.64;37.08;101382.13;5003161;28;20034;-56
2021/05/30 10:23:41;;;;;;;1127.22;999.90;;;;;;;18.65;37.47;101377.53;4999998;28;20081;-57
2021/05/30 10:26:22;;;;;;;1123.60;999.90;;;;;;;18.65;37.72;101380.25;4997529;28;20033;-58
2021/05/30 10:29:09;;;;;;;1124.32;999.90;;;;;;;18.67;37.47;101378.22;4990702;28;20038;-56
2021/05/30 10:31:37;;;;;;;1125.05;999.90;;;;;;;18.67;37.30;101383.66;4995674;28;20029;-55
2021/05/30 10:34:09;;;;;;;1123.65;999.90;;;;;;;18.68;37.73;101382.63;5007892;28;20042;-59
2021/05/30 10:36:36;;;;;;;1125.38;999.90;;;;;;;18.65;37.09;101383.81;5008430;28;20042;-57
2021/05/30 10:39:03;;;;;;;1124.28;999.90;;;;;;;18.68;37.45;101378.03;5004416;28;20030;-53
2021/05/30 10:41:28;;;;;;;1125.38;999.90;;;;;;;18.70;37.38;101383.31;5006178;28;20033;-55
2021/05/30 10:43:54;;;;;;;1124.28;999.90;;;;;;;18.67;37.04;101378.22;4997071;28;20046;-59
2021/05/30 10:46:23;;;;;;;1125.55;999.90;;;;;;;18.66;37.07;101387.41;5005871;28;20030;-56
2021/05/30 10:49:07;;;;;;;1127.15;999.90;;;;;;;18.64;36.89;101379.41;5000305;28;20049;-57
2021/05/30 10:51:49;;;;;;;1125.13;999.90;;;;;;;18.61;36.30;101384.31;5009767;28;20033;-59